Sunday, February 01, 2015
18:09 UTC
  |  Log In   |  Register Free
Airport Search:

Coffeyville Municipal Airport
(KCFV)

Coffeyville Municipal Airport Diagram
No Airport Diagram Available

FAA data valid effective January 08, 2015 - March 05, 2015 (unless otherwise noted).

 
 
 
 
 
 
 
 
 
 
 
 
 
 

Current Aviation Weather for Coffeyville Municipal Airport (KCFV)

The most recent METAR observation for KCFV was updated at: 1712
METAR Summary (Translated METAR)
KCFV
011652Z AUTO 30022G31KT 10SM OVC017 01/M02 A2993 RMK AO2 PK WND 31031/1640 SLP139 T00061022 $
KIDP
011655Z AUTO 31028G34KT 10SM OVC017 00/M02 A2994 RMK AO2
(10.6 nm NW from KCFV)
KPPF
011652Z AUTO 31024G32KT 10SM OVC016 01/M02 A2992 RMK AO2 PK WND 32034/1613 SLP136 T00061022 PNO $
(14.6 nm NE from KCFV)
TAF
No TAF information found within 50 nm of KCFV
  Airport Weather Conditions for KCFV

 Current Weather at CFV
33° F
Overcast and Breezy
Northwest winds at 25.3 mph
CFV NOAA Radar

Pressure: 29.93 in
Humidity: 82%
Wind: from the Northwest at 25.3 gusting to 35.7 MPH (22 gusting to 31 KT)
Dew Point: 28.0°F
Visibility: 10.00 mi


Airport Weather Forecast for KCFV

Translated METAR and TAF for KCFV
Translated METAR for KCFV (1810 UTC 01 February 2015)
found at http://aviationweather.gov/adds/metars/
 
METAR text: KCFV 011752Z AUTO 31020G32KT 10SM OVC021 01/M04 A2995 RMK AO2 PK WND 32032/1746 SLP148 60000 T00061039 10072 20006 51039 $
Conditions at: KCFV (COFFEYVILLE , KS, US) observed 1752 UTC 01 February 2015
Temperature: 0.6°C (33°F)
Dewpoint: -3.9°C (25°F) [RH = 72%]
Pressure (altimeter): 29.95 inches Hg (1014.3 mb)
[Sea-level pressure: 1014.8 mb]
Winds: from the NW (310 degrees) at 23 MPH (20 knots; 10.4 m/s)
gusting to 37 MPH (32 knots; 16.6 m/s)
Visibility: 10 or more miles (16+ km)
Ceiling: 2100 feet AGL
Clouds: overcast cloud deck at 2100 feet AGL
Weather:
SOME DATA ABOVE MAY BE INACCURATE!!!
"$" is an indication the sensor requires maintenance
Translated TAF for KCFV

There is no translated TAF available for this airport

Find All Airport Services Find A Hotel Find A Rental Car Find A Golf Course Find A Restaurant $100 Hamburger



FBO's on the Field
FBO Company Facility Photos Services Transportation Aviation Fuel Prices: Prices include tax
Catering Weather Repair Courtesy Rental Type 100LL JetA JetA+ MOGAS 8087
 
Coffeyville Aircraft, Inc

This FBO has not yet been rated
FS:Phillips 66
Last Updated: Jan-12
Login to update fuel prices
SS:
Contact Coffeyville Aircraft, IncMore FBO Information
 
Add another FBO Facility Photos Catering Weather Repair Courtesy Rental Type 100LL JetA JetA+ MOGAS 8087
Services Transportation Aviation Fuel Prices: Prices include tax


model-print
model-print
model-print
model-print